Time;durP1;ratioP1;P1;durP2;ratioP2;P2;SDS_P1;SDS_P2;PMS_P1;PMS_P2;Temp;Humidity;BMP_temperature;BMP_pressure;BME280_temperature;BME280_humidity;BME280_pressure;Samples;Min_cycle;Max_cycle;Signal;HPM_P1;HPM_P2
2022/10/22 16:44:32;;;;;;;0.38;0.38;;;;;;;15.45;66.66;97022.88;87628;74;250276;-61
2022/10/22 16:45:05;;;;;;;0.40;0.40;;;;;;;15.45;66.55;97017.41;29394;209;64008;-61
2022/10/22 16:45:36;;;;;;;0.40;0.40;;;;;;;15.45;66.33;97025.59;29395;202;63005;-62
2022/10/22 16:46:08;;;;;;;0.40;0.40;;;;;;;15.47;66.17;97017.88;29395;245;63009;-63
2022/10/22 16:46:39;;;;;;;0.45;0.45;;;;;;;15.48;65.96;97022.22;29395;274;63005;-62
2022/10/22 16:47:11;;;;;;;0.40;0.40;;;;;;;15.52;65.86;97023.19;29395;205;63009;-62
2022/10/22 16:47:44;;;;;;;0.40;0.40;;;;;;;15.52;65.80;97020.47;29395;199;63005;-60
2022/10/22 16:48:17;;;;;;;0.40;0.40;;;;;;;15.50;65.55;97020.78;29395;210;63009;-61
2022/10/22 16:48:51;;;;;;;0.40;0.40;;;;;;;15.47;66.01;97020.63;29395;197;63005;-60
2022/10/22 16:49:22;;;;;;;0.40;0.40;;;;;;;15.45;65.76;97023.66;29395;226;63009;-62
2022/10/22 16:49:54;;;;;;;0.40;0.40;;;;;;;15.45;66.03;97022.88;29394;209;64009;-62
2022/10/22 16:50:25;;;;;;;0.40;0.40;;;;;;;15.46;65.94;97025.28;29395;254;63009;-62
2022/10/22 16:50:57;;;;;;;0.40;0.40;;;;;;;15.47;66.11;97017.88;29395;216;63004;-61
2022/10/22 16:51:28;;;;;;;0.40;0.40;;;;;;;15.47;65.85;97015.16;29395;222;63014;-61
2022/10/22 16:51:59;;;;;;;0.40;0.40;;;;;;;15.46;65.94;97027.22;29394;202;64009;-60
2022/10/22 16:52:31;;;;;;;0.40;0.40;;;;;;;15.42;65.80;97022.38;29395;238;63008;-63
2022/10/22 16:53:02;;;;;;;0.40;0.40;;;;;;;15.41;66.08;97028.97;29395;209;63017;-62
2022/10/22 16:53:34;;;;;;;0.40;0.40;;;;;;;15.40;66.06;97021.91;29357;83;65671;-61
2022/10/22 16:54:05;;;;;;;0.40;0.40;;;;;;;15.38;66.26;97029.63;29305;197;79592;-60
2022/10/22 16:54:36;;;;;;;0.40;0.40;;;;;;;15.38;66.48;97029.63;29395;256;63009;-61
2022/10/22 16:55:08;;;;;;;0.40;0.40;;;;;;;15.37;66.27;97030.72;29395;213;63005;-61
2022/10/22 16:55:40;;;;;;;0.40;0.40;;;;;;;15.36;66.13;97029.13;29395;219;63009;-60
2022/10/22 16:56:13;;;;;;;0.40;0.40;;;;;;;15.35;66.50;97024.78;29394;235;64009;-61
2022/10/22 16:56:44;;;;;;;0.40;0.40;;;;;;;15.36;66.67;97039.25;29395;216;63009;-61
2022/10/22 16:57:15;;;;;;;0.40;0.40;;;;;;;15.34;66.30;97036.84;29395;215;63007;-60
2022/10/22 16:57:51;;;;;;;0.40;0.40;;;;;;;15.32;66.62;97036.34;29395;257;63009;-60
2022/10/22 16:58:24;;;;;;;0.40;0.40;;;;;;;15.31;66.24;97040.22;29395;242;63017;-60
2022/10/22 16:58:57;;;;;;;0.40;0.40;;;;;;;15.30;66.41;97037.78;29395;208;63009;-60
2022/10/22 16:59:28;;;;;;;0.40;0.40;;;;;;;15.28;66.46;97031.84;29395;203;63004;-62
2022/10/22 16:59:59;;;;;;;0.40;0.40;;;;;;;15.27;66.29;97038.44;29395;202;63008;-60
2022/10/22 17:00:33;;;;;;;0.40;0.40;;;;;;;15.27;66.37;97032.97;29394;211;64008;-63
2022/10/22 17:01:07;;;;;;;0.43;0.43;;;;;;;15.27;66.39;97033.78;29395;207;63009;-64
2022/10/22 17:01:38;;;;;;;0.40;0.40;;;;;;;15.27;66.25;97033.78;29395;265;63008;-63
2022/10/22 17:02:10;;;;;;;0.40;0.40;;;;;;;15.26;66.67;97037.63;29395;281;63009;-62
2022/10/22 17:02:41;;;;;;;0.40;0.40;;;;;;;15.25;66.08;97030.53;29395;198;63017;-62
2022/10/22 17:03:12;;;;;;;0.50;0.50;;;;;;;15.30;66.70;97032.31;29395;223;63009;-62
2022/10/22 17:03:44;;;;;;;0.45;0.45;;;;;;;15.29;66.44;97036.19;29395;219;63015;-62
2022/10/22 17:04:18;;;;;;;0.40;0.40;;;;;;;15.28;66.28;97032.66;29395;202;63009;-61
2022/10/22 17:04:50;;;;;;;0.40;0.40;;;;;;;15.27;66.53;97035.69;29395;259;63004;-62
2022/10/22 17:05:22;;;;;;;0.40;0.40;;;;;;;15.25;66.31;97036.00;29394;199;64013;-62
2022/10/22 17:05:56;;;;;;;0.40;0.40;;;;;;;15.22;66.03;97033.94;29395;213;63004;-61
2022/10/22 17:06:28;;;;;;;0.40;0.40;;;;;;;15.23;66.65;97037.50;29395;235;63009;-61
2022/10/22 17:06:59;;;;;;;0.40;0.40;;;;;;;15.22;66.62;97038.63;29395;225;63004;-63
2022/10/22 17:07:31;;;;;;;0.40;0.40;;;;;;;15.20;66.68;97033.47;29395;214;63008;-63
2022/10/22 17:08:02;;;;;;;0.40;0.40;;;;;;;15.18;66.74;97035.69;29395;223;63004;-63
2022/10/22 17:08:35;;;;;;;0.40;0.40;;;;;;;15.17;66.72;97034.09;29395;247;63009;-62
2022/10/22 17:09:06;;;;;;;0.40;0.40;;;;;;;15.16;66.71;97035.22;29395;223;63005;-61
2022/10/22 17:09:37;;;;;;;0.40;0.40;;;;;;;15.15;66.92;97036.34;29394;226;64014;-61
2022/10/22 17:10:09;;;;;;;0.40;0.40;;;;;;;15.15;66.48;97033.59;29395;240;63005;-62
2022/10/22 17:10:40;;;;;;;0.40;0.40;;;;;;;15.14;66.88;97042.94;29395;202;63009;-62
2022/10/22 17:11:16;;;;;;;0.43;0.43;;;;;;;15.16;67.04;97043.41;29394;236;64009;-61
2022/10/22 17:11:47;;;;;;;0.40;0.40;;;;;;;15.18;67.38;97046.63;29395;314;63009;-62
2022/10/22 17:12:19;;;;;;;0.40;0.40;;;;;;;15.18;67.00;97041.16;29395;356;63005;-63
2022/10/22 17:12:50;;;;;;;0.40;0.40;;;;;;;15.17;67.10;97039.56;29395;202;63009;-63
2022/10/22 17:13:22;;;;;;;0.40;0.40;;;;;;;15.15;66.96;97035.53;29394;212;64009;-62
2022/10/22 17:13:54;;;;;;;0.40;0.40;;;;;;;15.11;67.33;97035.37;29395;199;63009;-63
2022/10/22 17:14:25;;;;;;;0.40;0.40;;;;;;;15.10;67.41;97036.50;29404;83;63018;-63
2022/10/22 17:14:56;;;;;;;0.40;0.40;;;;;;;15.05;67.49;97037.44;29395;227;63008;-61
2022/10/22 17:15:28;;;;;;;0.45;0.45;;;;;;;15.04;67.41;97035.03;29395;214;63004;-65
2022/10/22 17:16:11;;;;;;;0.50;0.50;;;;;;;15.02;67.67;97034.53;29395;231;63009;-62
2022/10/22 17:16:43;;;;;;;0.50;0.50;;;;;;;15.00;67.85;97040.31;29394;202;64009;-62
2022/10/22 17:17:15;;;;;;;0.40;0.40;;;;;;;14.99;67.22;97037.91;29395;221;63009;-63
2022/10/22 17:17:51;;;;;;;0.43;0.43;;;;;;;14.98;67.37;97037.09;29395;214;63005;-62
2022/10/22 17:18:23;;;;;;;0.43;0.43;;;;;;;14.96;67.50;97030.34;29395;212;63009;-63
2022/10/22 17:18:55;;;;;;;0.40;0.40;;;;;;;14.95;67.24;97031.44;29395;216;63005;-62
2022/10/22 17:19:27;;;;;;;0.50;0.50;;;;;;;14.96;67.97;97038.53;29395;270;63009;-62
2022/10/22 17:19:58;;;;;;;0.40;0.40;;;;;;;14.97;67.37;97029.22;29395;206;63004;-61
2022/10/22 17:20:31;;;;;;;0.40;0.40;;;;;;;14.96;67.78;97038.53;29395;199;63009;-62
2022/10/22 17:21:07;;;;;;;0.40;0.40;;;;;;;14.95;67.83;97024.06;29395;224;63004;-62
2022/10/22 17:21:39;;;;;;;0.40;0.40;;;;;;;14.96;67.73;97033.88;29394;203;64013;-63
2022/10/22 17:22:10;;;;;;;0.45;0.45;;;;;;;14.96;68.03;97033.06;29395;211;63004;-63
2022/10/22 17:22:41;;;;;;;0.40;0.40;;;;;;;14.99;67.83;97032.44;29395;217;63008;-62
2022/10/22 17:23:13;;;;;;;0.40;0.40;;;;;;;15.00;67.77;97028.56;29395;220;63004;-62
2022/10/22 17:23:45;;;;;;;0.40;0.40;;;;;;;15.00;67.84;97034.84;29395;210;63009;-61
2022/10/22 17:24:17;;;;;;;0.40;0.40;;;;;;;14.98;67.46;97036.28;29395;211;63005;-62
2022/10/22 17:25:18;;;;;;;0.43;0.43;;;;;;;14.97;68.10;97034.66;29395;210;63009;-63
2022/10/22 17:26:00;;;;;;;0.45;0.45;;;;;;;14.95;67.48;97043.19;29395;206;63005;-63
2022/10/22 17:26:33;;;;;;;0.40;0.40;;;;;;;14.96;67.89;97038.53;29395;197;63015;-61
2022/10/22 17:27:04;;;;;;;0.40;0.40;;;;;;;14.94;67.71;97038.03;29394;222;64009;-62
2022/10/22 17:27:36;;;;;;;0.40;0.40;;;;;;;14.92;67.48;97043.00;29394;220;64013;-64
2022/10/22 17:28:12;;;;;;;0.40;0.40;;;;;;;14.91;67.43;97046.88;29395;227;63004;-62
2022/10/22 17:28:44;;;;;;;0.40;0.40;;;;;;;14.91;67.93;97041.41;29395;337;63009;-63
2022/10/22 17:29:16;;;;;;;0.40;0.40;;;;;;;14.90;67.56;97039.81;29395;212;63004;-62
2022/10/22 17:29:48;;;;;;;0.40;0.40;;;;;;;14.90;67.77;97039.81;29395;237;63008;-62
2022/10/22 17:30:21;;;;;;;0.40;0.40;;;;;;;14.91;67.56;97044.13;29395;288;63005;-62
2022/10/22 17:31:20;;;;;;;0.40;0.40;;;;;;;14.91;67.75;97035.94;29395;296;63018;-63
2022/10/22 17:31:51;;;;;;;0.43;0.43;;;;;;;14.90;67.50;97039.81;29394;216;64009;-61
2022/10/22 17:32:22;;;;;;;0.47;0.47;;;;;;;14.89;67.63;97043.69;29395;225;63009;-61
2022/10/22 17:32:54;;;;;;;0.40;0.40;;;;;;;14.89;67.57;97044.47;29395;205;63005;-62
2022/10/22 17:33:26;;;;;;;0.40;0.40;;;;;;;14.87;67.29;97040.44;29395;233;63018;-61
2022/10/22 17:33:58;;;;;;;0.40;0.40;;;;;;;14.87;67.32;97045.91;29395;199;63008;-62
2022/10/22 17:34:32;;;;;;;0.50;0.50;;;;;;;14.85;67.62;97042.69;29395;212;63009;-62
2022/10/22 17:35:04;;;;;;;0.40;0.40;;;;;;;14.84;67.08;97041.88;29395;294;63004;-61
2022/10/22 17:35:39;;;;;;;0.40;0.40;;;;;;;14.84;67.45;97046.53;29394;206;64013;-61
2022/10/22 17:36:12;;;;;;;0.40;0.40;;;;;;;14.83;67.21;97044.94;29395;263;63004;-61
2022/10/22 17:36:44;;;;;;;0.40;0.40;;;;;;;14.83;67.72;97045.75;29395;204;63008;-61
2022/10/22 17:37:15;;;;;;;0.40;0.40;;;;;;;14.81;67.22;97041.72;29395;222;63004;-62
2022/10/22 17:37:46;;;;;;;0.40;0.40;;;;;;;14.82;67.04;97038.66;29395;203;63009;-62
2022/10/22 17:38:17;;;;;;;0.40;0.40;;;;;;;14.83;67.16;97043.00;29395;222;63005;-61
2022/10/22 17:38:52;;;;;;;0.40;0.40;;;;;;;14.83;66.84;97044.94;29394;287;64014;-63
2022/10/22 17:39:23;;;;;;;0.47;0.47;;;;;;;14.86;67.00;97041.56;29395;348;63005;-65
2022/10/22 17:39:54;;;;;;;0.45;0.45;;;;;;;14.90;66.78;97045.28;29395;246;63018;-68
2022/10/22 17:40:26;;;;;;;0.40;0.40;;;;;;;14.90;66.31;97040.59;29395;218;63005;-62
2022/10/22 17:40:57;;;;;;;0.40;0.40;;;;;;;14.91;66.41;97041.41;29395;202;63009;-62
2022/10/22 17:41:31;;;;;;;0.40;0.40;;;;;;;14.90;66.35;97051.53;29395;204;63005;-62
2022/10/22 17:42:03;;;;;;;0.40;0.40;;;;;;;14.90;66.59;97045.28;29395;309;63009;-62
2022/10/22 17:42:35;;;;;;;0.50;0.50;;;;;;;14.90;66.45;97039.81;29395;206;63004;-62
2022/10/22 17:43:07;;;;;;;0.40;0.40;;;;;;;14.89;67.01;97038.22;29395;276;63009;-62
2022/10/22 17:43:38;;;;;;;0.50;0.50;;;;;;;14.94;66.08;97040.78;29395;229;63004;-62
2022/10/22 17:44:11;;;;;;;0.50;0.50;;;;;;;14.95;66.17;97039.66;29394;232;64013;-62
2022/10/22 17:44:42;;;;;;;0.50;0.50;;;;;;;14.96;66.14;97049.47;29395;205;63004;-63
2022/10/22 17:45:14;;;;;;;0.40;0.40;;;;;;;14.96;66.51;97041.25;29395;211;63009;-62
2022/10/22 17:45:46;;;;;;;0.50;0.50;;;;;;;14.96;66.19;97049.47;29395;199;63005;-63
2022/10/22 17:46:20;;;;;;;0.50;0.50;;;;;;;14.95;66.72;97053.31;29395;222;63017;-62
2022/10/22 17:46:52;;;;;;;0.50;0.50;;;;;;;14.93;66.57;97056.34;29395;214;63005;-62
2022/10/22 17:47:23;;;;;;;0.40;0.40;;;;;;;14.93;66.46;97061.00;29395;221;63009;-62
2022/10/22 17:47:56;;;;;;;0.40;0.40;;;;;;;14.92;66.51;97048.47;29395;202;63005;-63
2022/10/22 17:48:27;;;;;;;0.50;0.50;;;;;;;14.92;66.55;97059.41;29395;221;63009;-63
2022/10/22 17:49:06;;;;;;;0.40;0.40;;;;;;;14.93;66.17;97061.81;29395;199;63005;-63
2022/10/22 17:49:38;;;;;;;0.40;0.40;;;;;;;14.93;66.54;97061.81;29394;237;64013;-63
2022/10/22 17:50:10;;;;;;;0.40;0.40;;;;;;;14.93;65.90;97061.00;29395;308;63004;-62
2022/10/22 17:50:42;;;;;;;0.40;0.40;;;;;;;14.92;66.23;97064.88;29395;209;63009;-62
2022/10/22 17:51:13;;;;;;;0.50;0.50;;;;;;;14.90;65.96;97061.69;29395;226;63000;-62
2022/10/22 17:51:45;;;;;;;0.40;0.40;;;;;;;14.90;66.24;97061.69;29395;226;63009;-62
2022/10/22 17:52:17;;;;;;;0.40;0.40;;;;;;;14.94;66.32;97062.62;29395;222;63004;-61
2022/10/22 17:52:48;;;;;;;0.40;0.40;;;;;;;14.95;66.33;97064.25;29395;207;63009;-63
2022/10/22 17:53:19;;;;;;;0.50;0.50;;;;;;;14.96;65.99;97065.84;29395;222;63005;-61
2022/10/22 17:53:51;;;;;;;0.50;0.50;;;;;;;14.94;66.00;97068.09;29395;227;63009;-63
2022/10/22 17:54:22;;;;;;;0.50;0.50;;;;;;;14.94;65.72;97068.09;29395;202;63017;-62
2022/10/22 17:54:54;;;;;;;0.47;0.47;;;;;;;14.94;65.88;97062.62;29394;319;64013;-61
2022/10/22 17:55:25;;;;;;;0.40;0.40;;;;;;;14.94;65.85;97063.44;29395;277;63005;-62
2022/10/22 17:56:01;;;;;;;0.40;0.40;;;;;;;14.94;66.25;97062.62;29395;323;63009;-63
2022/10/22 17:56:32;;;;;;;0.40;0.40;;;;;;;14.93;66.01;97058.28;29395;247;63005;-62
2022/10/22 17:57:03;;;;;;;0.40;0.40;;;;;;;14.92;66.11;97059.41;29395;314;63014;-63
2022/10/22 17:57:35;;;;;;;0.40;0.40;;;;;;;14.90;65.93;97051.53;29395;234;63004;-63
2022/10/22 17:58:07;;;;;;;0.35;0.35;;;;;;;14.90;66.37;97061.69;29395;234;63009;-63
2022/10/22 17:58:39;;;;;;;0.50;0.50;;;;;;;14.90;65.81;97057.00;29395;206;63014;-62
2022/10/22 17:59:12;;;;;;;0.50;0.50;;;;;;;14.88;66.08;97058.47;29395;204;63009;-62
2022/10/22 17:59:44;;;;;;;0.65;0.65;;;;;;;14.88;65.87;97063.91;29395;199;63004;-62
2022/10/22 18:00:17;;;;;;;0.40;0.40;;;;;;;14.87;66.01;97065.84;29394;223;64014;-62
2022/10/22 18:00:48;;;;;;;0.50;0.50;;;;;;;14.86;65.73;97057.97;29395;218;63005;-62
2022/10/22 18:01:27;;;;;;;0.40;0.40;;;;;;;14.86;66.09;97057.97;29395;266;63009;-63
2022/10/22 18:02:01;;;;;;;0.40;0.40;;;;;;;14.85;66.01;97064.53;29395;228;63005;-63
2022/10/22 18:02:32;;;;;;;0.40;0.40;;;;;;;14.84;66.02;97068.41;29395;205;63019;-62
2022/10/22 18:03:08;;;;;;;0.40;0.40;;;;;;;14.83;65.96;97067.59;29395;197;63005;-62
2022/10/22 18:03:39;;;;;;;0.43;0.43;;;;;;;14.81;66.08;97058.09;29395;197;63009;-62
2022/10/22 18:04:15;;;;;;;0.40;0.40;;;;;;;14.81;66.10;97058.09;29395;231;63005;-62
2022/10/22 18:04:51;;;;;;;0.40;0.40;;;;;;;14.80;66.06;97064.69;29394;212;64013;-63
2022/10/22 18:05:23;;;;;;;0.40;0.40;;;;;;;14.79;66.08;97052.16;29395;210;63004;-62
2022/10/22 18:05:55;;;;;;;0.40;0.40;;;;;;;14.79;65.89;97060.34;29395;298;63009;-63
2022/10/22 18:06:28;;;;;;;0.40;0.40;;;;;;;14.80;65.90;97062.75;29395;205;63004;-61
2022/10/22 18:06:59;;;;;;;0.40;0.40;;;;;;;14.78;66.12;97051.34;29395;196;63008;-61
2022/10/22 18:07:30;;;;;;;0.40;0.40;;;;;;;14.79;65.76;97057.59;29395;218;63004;-62
2022/10/22 18:08:03;;;;;;;0.40;0.40;;;;;;;14.78;66.26;97059.53;29395;235;63009;-67
2022/10/22 18:08:34;;;;;;;0.40;0.40;;;;;;;14.78;66.10;97058.72;29394;259;64009;-62
2022/10/22 18:09:08;;;;;;;0.40;0.40;;;;;;;14.79;65.96;97046.69;29395;223;63009;-62
2022/10/22 18:09:39;;;;;;;0.40;0.40;;;;;;;14.82;65.38;97054.25;29395;235;63005;-62
2022/10/22 18:10:12;;;;;;;0.50;0.50;;;;;;;14.83;65.74;97050.41;29395;216;63009;-62
2022/10/22 18:10:46;;;;;;;0.43;0.43;;;;;;;14.82;65.12;97049.59;29395;231;63005;-62
2022/10/22 18:11:20;;;;;;;0.43;0.43;;;;;;;14.83;65.31;97053.13;29395;202;63009;-63
2022/10/22 18:11:53;;;;;;;0.40;0.40;;;;;;;14.81;65.41;97047.19;29395;213;63004;-63
2022/10/22 18:12:24;;;;;;;0.40;0.40;;;;;;;14.81;65.44;97052.63;29395;209;63009;-62
2022/10/22 18:12:56;;;;;;;0.80;0.80;;;;;;;14.81;65.30;97052.63;29395;282;63004;-61
2022/10/22 18:13:27;;;;;;;0.40;0.40;;;;;;;14.80;65.43;97051.84;29394;210;64013;-61
2022/10/22 18:14:02;;;;;;;0.40;0.40;;;;;;;14.80;65.43;97048.28;29395;212;63004;-70
2022/10/22 18:14:37;;;;;;;0.40;0.40;;;;;;;14.80;65.76;97045.56;29395;217;63008;-62
2022/10/22 18:15:09;;;;;;;0.50;0.50;;;;;;;14.80;65.56;97040.09;29395;361;63004;-63
2022/10/22 18:15:41;;;;;;;0.40;0.40;;;;;;;14.81;65.65;97052.63;29395;202;63009;-63
2022/10/22 18:16:12;;;;;;;0.40;0.40;;;;;;;14.80;65.91;97051.03;29395;244;63005;-62
2022/10/22 18:16:46;;;;;;;0.43;0.43;;;;;;;14.80;65.42;97051.84;29395;315;63009;-62
2022/10/22 18:17:18;;;;;;;0.50;0.50;;;;;;;14.80;65.51;97051.84;29395;240;63005;-64
2022/10/22 18:17:49;;;;;;;0.40;0.40;;;;;;;14.80;65.52;97056.50;29394;211;64013;-63
2022/10/22 18:18:22;;;;;;;0.40;0.40;;;;;;;14.79;65.50;97050.22;29395;301;63005;-63
2022/10/22 18:18:55;;;;;;;0.40;0.40;;;;;;;14.78;65.85;97054.06;29395;213;63009;-63
2022/10/22 18:19:27;;;;;;;0.40;0.40;;;;;;;14.78;65.63;97047.81;29395;362;63009;-64
2022/10/22 18:19:58;;;;;;;0.50;0.50;;;;;;;14.79;65.79;97049.41;29394;212;64013;-63
2022/10/22 18:20:30;;;;;;;0.40;0.40;;;;;;;14.78;65.45;97058.72;29395;267;63004;-63
2022/10/22 18:21:02;;;;;;;0.40;0.40;;;;;;;14.76;65.63;97053.59;29395;250;63009;-63
2022/10/22 18:21:34;;;;;;;0.40;0.40;;;;;;;14.75;65.41;97050.03;29395;209;63004;-62
2022/10/22 18:22:06;;;;;;;0.50;0.50;;;;;;;14.76;65.50;97050.84;29395;202;63009;-62
2022/10/22 18:22:40;;;;;;;0.50;0.50;;;;;;;14.78;65.60;97058.72;29394;210;64009;-62
2022/10/22 18:23:12;;;;;;;0.50;0.50;;;;;;;14.78;65.51;97058.72;29395;217;63009;-63
2022/10/22 18:23:44;;;;;;;0.50;0.50;;;;;;;14.77;65.27;97052.47;29395;215;63005;-62
2022/10/22 18:24:16;;;;;;;0.50;0.50;;;;;;;14.77;65.51;97052.47;29395;254;63014;-63
2022/10/22 18:24:48;;;;;;;0.50;0.50;;;;;;;14.77;65.16;97051.66;29395;234;63005;-61
2022/10/22 18:25:20;;;;;;;0.40;0.40;;;;;;;14.77;65.44;97051.66;29395;230;63009;-64
2022/10/22 18:25:51;;;;;;;0.50;0.50;;;;;;;14.78;65.54;97058.72;29395;220;63005;-62
2022/10/22 18:26:23;;;;;;;0.40;0.40;;;;;;;14.78;65.29;97053.25;29395;224;63009;-63
2022/10/22 18:26:55;;;;;;;0.43;0.43;;;;;;;14.80;65.32;97053.75;29395;213;63015;-63
2022/10/22 18:27:26;;;;;;;0.40;0.40;;;;;;;14.83;65.47;97055.88;29395;264;63009;-63
2022/10/22 18:27:58;;;;;;;0.40;0.40;;;;;;;14.85;65.27;97050.87;29394;214;64009;-64
2022/10/22 18:28:29;;;;;;;0.40;0.40;;;;;;;14.83;65.22;97050.41;29395;207;63017;-63
2022/10/22 18:29:01;;;;;;;0.40;0.40;;;;;;;14.82;65.01;97057.78;29395;288;63004;-63
2022/10/22 18:29:32;;;;;;;0.50;0.50;;;;;;;14.82;65.61;97054.25;29395;232;63009;-67
2022/10/22 18:30:05;;;;;;;0.50;0.50;;;;;;;14.82;65.22;97054.25;29395;226;63005;-65
2022/10/22 18:30:39;;;;;;;0.50;0.50;;;;;;;14.81;65.65;97053.44;29395;216;63009;-65
2022/10/22 18:31:18;;;;;;;0.50;0.50;;;;;;;14.84;65.46;97052.00;29395;234;63005;-63
2022/10/22 18:31:50;;;;;;;0.45;0.45;;;;;;;14.84;65.37;97052.81;29395;254;63027;-62
2022/10/22 18:32:21;;;;;;;0.50;0.50;;;;;;;14.82;65.21;97046.84;29395;219;63005;-63
2022/10/22 18:32:53;;;;;;;0.50;0.50;;;;;;;14.79;65.42;97050.22;29395;219;63009;-65
2022/10/22 18:33:25;;;;;;;0.50;0.50;;;;;;;14.80;65.92;97046.38;29394;320;64009;-63
2022/10/22 18:33:57;;;;;;;0.43;0.43;;;;;;;14.82;65.70;97048.78;29395;196;63009;-63
2022/10/22 18:34:31;;;;;;;0.50;0.50;;;;;;;14.84;65.86;97046.53;29395;264;63004;-62
2022/10/22 18:35:04;;;;;;;0.50;0.50;;;;;;;14.81;65.76;97047.19;29395;197;63014;-62
2022/10/22 18:35:40;;;;;;;0.50;0.50;;;;;;;14.79;65.63;97052.16;29395;214;63004;-63
2022/10/22 18:36:17;;;;;;;0.50;0.50;;;;;;;14.77;66.20;97051.66;29395;239;63009;-63
2022/10/22 18:36:54;;;;;;;0.50;0.50;;;;;;;14.81;66.21;97053.44;29395;326;63004;-64
2022/10/22 18:37:27;;;;;;;0.50;0.50;;;;;;;14.79;66.41;97055.69;29395;199;63009;-64
2022/10/22 18:37:59;;;;;;;0.50;0.50;;;;;;;14.75;66.00;97050.03;29395;232;63005;-64
2022/10/22 18:38:32;;;;;;;0.50;0.50;;;;;;;14.74;66.50;97048.44;29394;250;64014;-65
2022/10/22 18:39:04;;;;;;;0.75;0.75;;;;;;;14.77;66.39;97046.19;29395;229;63005;-63
2022/10/22 18:39:37;;;;;;;0.50;0.50;;;;;;;14.72;66.95;97047.12;29395;333;63009;-63
2022/10/22 18:40:11;;;;;;;0.47;0.47;;;;;;;14.70;67.05;97046.66;29395;202;63005;-73
2022/10/22 18:40:47;;;;;;;0.45;0.45;;;;;;;14.67;67.55;97048.06;29395;238;63009;-63
2022/10/22 18:41:19;;;;;;;0.40;0.40;;;;;;;14.63;67.51;97047.09;29395;219;63004;-65
2022/10/22 18:41:51;;;;;;;0.50;0.50;;;;;;;14.61;67.75;97046.59;29395;267;63009;-61
2022/10/22 18:42:23;;;;;;;0.50;0.50;;;;;;;14.58;67.52;97049.97;29395;214;63004;-62
2022/10/22 18:42:56;;;;;;;0.50;0.50;;;;;;;14.56;67.88;97041.28;29395;281;63009;-61
2022/10/22 18:43:29;;;;;;;0.50;0.50;;;;;;;14.53;67.58;97044.66;29395;367;63004;-61
2022/10/22 18:44:03;;;;;;;0.43;0.43;;;;;;;14.50;68.01;97048.00;29394;296;64013;-61
2022/10/22 18:44:36;;;;;;;0.50;0.50;;;;;;;14.54;68.29;97048.19;29395;197;63010;-62
2022/10/22 18:45:10;;;;;;;0.50;0.50;;;;;;;14.53;68.58;97049.31;29395;211;63009;-63
2022/10/22 18:45:47;;;;;;;0.40;0.40;;;;;;;14.50;68.21;97041.75;29395;218;63005;-63
2022/10/22 18:46:20;;;;;;;0.40;0.40;;;;;;;14.47;68.60;97048.63;29395;210;63009;-62
2022/10/22 18:46:52;;;;;;;0.40;0.40;;;;;;;14.45;68.55;97045.41;29395;197;63005;-63
2022/10/22 18:47:25;;;;;;;0.50;0.50;;;;;;;14.47;69.04;97045.09;29394;234;64009;-66
2022/10/22 18:47:59;;;;;;;0.40;0.40;;;;;;;14.48;68.91;97044.00;29395;198;63005;-62
2022/10/22 18:48:31;;;;;;;0.50;0.50;;;;;;;14.46;68.79;97051.69;29395;199;63009;-63
2022/10/22 18:49:05;;;;;;;0.50;0.50;;;;;;;14.43;69.10;97055.03;29394;218;64009;-61
2022/10/22 18:49:39;;;;;;;0.45;0.45;;;;;;;14.37;69.39;97046.94;29395;231;63009;-60
2022/10/22 18:50:12;;;;;;;0.40;0.40;;;;;;;14.35;69.27;97046.44;29395;269;63004;-62
2022/10/22 18:50:46;;;;;;;0.50;0.50;;;;;;;14.36;69.60;97052.72;29395;274;63009;-62
2022/10/22 18:51:18;;;;;;;0.50;0.50;;;;;;;14.35;69.33;97049.19;29395;196;63004;-61
2022/10/22 18:51:51;;;;;;;0.50;0.50;;;;;;;14.33;69.79;97048.69;29395;236;63008;-60
2022/10/22 18:52:23;;;;;;;0.50;0.50;;;;;;;14.30;69.44;97049.31;29395;200;63005;-62
2022/10/22 18:52:56;;;;;;;0.43;0.43;;;;;;;14.30;69.93;97045.78;29395;205;63009;-61
2022/10/22 18:53:28;;;;;;;0.40;0.40;;;;;;;14.27;69.43;97049.13;29395;203;63013;-62
2022/10/22 18:54:01;;;;;;;0.45;0.45;;;;;;;14.26;69.78;97047.50;29395;204;63018;-62
2022/10/22 18:54:35;;;;;;;0.40;0.40;;;;;;;14.28;69.90;97050.75;29394;260;64009;-61
2022/10/22 18:55:08;;;;;;;0.40;0.40;;;;;;;14.27;69.78;97054.59;29395;237;63009;-61
2022/10/22 18:55:41;;;;;;;0.43;0.43;;;;;;;14.25;69.70;97045.91;29395;206;63005;-62
2022/10/22 18:56:13;;;;;;;0.40;0.40;;;;;;;14.25;69.94;97052.16;29395;215;63009;-60
2022/10/22 18:56:46;;;;;;;0.40;0.40;;;;;;;14.24;69.81;97056.00;29395;232;63004;-62
2022/10/22 18:57:18;;;;;;;0.50;0.50;;;;;;;14.22;70.05;97051.97;29395;210;63009;-63
2022/10/22 18:57:50;;;;;;;0.68;0.68;;;;;;;14.24;69.81;97047.03;29395;205;63012;-62
2022/10/22 18:58:23;;;;;;;0.50;0.50;;;;;;;14.22;70.07;97052.78;29395;208;63009;-60
2022/10/22 18:58:55;;;;;;;0.50;0.50;;;;;;;14.20;69.96;97054.25;29395;197;63009;-60
2022/10/22 18:59:27;;;;;;;0.50;0.50;;;;;;;14.18;70.24;97048.28;29394;289;64013;-60
2022/10/22 19:00:00;;;;;;;0.50;0.50;;;;;;;14.15;70.07;97043.47;29395;199;63005;-64
2022/10/22 19:00:35;;;;;;;0.50;0.50;;;;;;;14.12;70.06;97046.81;29395;327;63009;-61
2022/10/22 19:01:12;;;;;;;0.40;0.40;;;;;;;14.08;70.92;97041.97;29395;215;63005;-62
2022/10/22 19:01:45;;;;;;;0.50;0.50;;;;;;;14.05;70.43;97050.78;29395;250;63009;-63
2022/10/22 19:02:18;;;;;;;0.40;0.40;;;;;;;14.03;70.51;97042.09;29395;197;63005;-62
2022/10/22 19:02:50;;;;;;;0.50;0.50;;;;;;;14.03;70.48;97044.03;29395;322;63009;-63
2022/10/22 19:03:22;;;;;;;0.50;0.50;;;;;;;14.00;70.58;97048.16;29395;227;63005;-63
2022/10/22 19:03:55;;;;;;;0.50;0.50;;;;;;;14.01;70.90;97038.88;29394;211;64013;-63
2022/10/22 19:04:37;;;;;;;0.40;0.40;;;;;;;13.99;70.85;97048.47;29395;209;63004;-61
2022/10/22 19:05:09;;;;;;;0.80;0.80;;;;;;;14.00;70.79;97040.00;29395;221;63009;-62
2022/10/22 19:05:50;;;;;;;0.50;0.50;;;;;;;14.00;70.65;97034.53;29395;206;63004;-61
2022/10/22 19:06:28;;;;;;;;;;;;;;;13.98;70.78;97044.13;29996;983;6004;-66
2022/10/22 19:07:00;;;;;;;0.40;0.40;;;;;;;13.96;70.72;97044.44;29400;208;63008;-60
2022/10/22 19:07:35;;;;;;;0.40;0.40;;;;;;;13.97;70.77;97046.06;29395;316;63005;-61
2022/10/22 19:08:07;;;;;;;0.40;0.40;;;;;;;13.96;70.79;97044.44;29395;221;63009;-60
2022/10/22 19:08:40;;;;;;;0.50;0.50;;;;;;;13.95;70.92;97048.28;29395;351;63005;-63
2022/10/22 19:09:14;;;;;;;0.40;0.40;;;;;;;13.95;71.01;97042.84;29394;223;64013;-61
2022/10/22 19:09:46;;;;;;;0.50;0.50;;;;;;;13.97;71.12;97047.97;29395;202;63005;-61
2022/10/22 19:10:20;;;;;;;0.50;0.50;;;;;;;13.97;70.96;97051.50;29395;301;63020;-60
2022/10/22 19:10:53;;;;;;;0.40;0.40;;;;;;;14.01;70.88;97040.78;29395;254;63005;-63
2022/10/22 19:11:26;;;;;;;0.50;0.50;;;;;;;14.01;71.02;97049.78;29395;243;63009;-61
2022/10/22 19:11:59;;;;;;;0.50;0.50;;;;;;;14.00;71.14;97037.25;29395;199;63004;-62
2022/10/22 19:12:34;;;;;;;0.50;0.50;;;;;;;13.99;70.85;97041.09;29395;266;63009;-65
2022/10/22 19:13:06;;;;;;;0.40;0.40;;;;;;;14.00;71.07;97048.16;29395;197;63004;-62
2022/10/22 19:13:39;;;;;;;0.50;0.50;;;;;;;14.00;71.06;97040.00;29395;272;63018;-63
2022/10/22 19:14:13;;;;;;;0.40;0.40;;;;;;;13.99;70.98;97038.38;29395;310;63004;-64
2022/10/22 19:14:47;;;;;;;0.50;0.50;;;;;;;13.98;70.78;97035.94;29394;268;64013;-62
2022/10/22 19:15:20;;;;;;;0.50;0.50;;;;;;;13.98;71.04;97035.94;29394;199;64005;-64
2022/10/22 19:15:52;;;;;;;0.50;0.50;;;;;;;13.97;70.96;97040.59;29395;270;63017;-63
2022/10/22 19:16:29;;;;;;;0.45;0.45;;;;;;;14.00;71.20;97036.44;29396;220;63005;-62
2022/10/22 19:17:02;;;;;;;0.50;0.50;;;;;;;14.00;70.95;97048.16;29396;218;63009;-63
2022/10/22 19:17:34;;;;;;;0.40;0.40;;;;;;;14.01;71.14;97040.78;29396;211;63005;-62
2022/10/22 19:18:07;;;;;;;0.40;0.40;;;;;;;13.99;70.85;97041.09;29396;220;63009;-62
2022/10/22 19:18:39;;;;;;;0.50;0.50;;;;;;;13.94;71.37;97052.13;29396;256;63004;-63
2022/10/22 19:19:15;;;;;;;0.50;0.50;;;;;;;13.95;70.98;97047.47;29396;223;63009;-61
2022/10/22 19:19:51;;;;;;;0.50;0.50;;;;;;;13.93;71.32;97050.53;29395;199;64009;-62
2022/10/22 19:20:23;;;;;;;0.50;0.50;;;;;;;13.92;71.31;97048.09;29396;215;63009;-61
2022/10/22 19:20:59;;;;;;;0.50;0.50;;;;;;;13.89;71.34;97046.00;29396;326;63004;-60